createdAt,value
2019-03-27T00:00:11.390Z,12.13
2019-03-27T00:02:42.991Z,12.25
2019-03-27T00:05:12.159Z,11.78
2019-03-27T00:07:41.340Z,12.43
2019-03-27T00:10:10.858Z,12.30
2019-03-27T00:12:40.024Z,11.95
2019-03-27T00:15:13.146Z,11.83
2019-03-27T00:17:41.785Z,12.93
2019-03-27T00:20:12.104Z,12.23
2019-03-27T00:22:41.321Z,12.20
2019-03-27T00:25:10.810Z,11.70
2019-03-27T00:27:40.079Z,13.50
2019-03-27T00:30:09.357Z,12.90
2019-03-27T00:32:38.687Z,12.65
2019-03-27T00:35:07.985Z,13.15
2019-03-27T00:37:37.167Z,12.68
2019-03-27T00:40:06.783Z,14.28
2019-03-27T00:42:36.073Z,13.72
2019-03-27T00:45:07.205Z,13.35
2019-03-27T00:47:36.350Z,13.53
2019-03-27T00:50:07.802Z,14.60
2019-03-27T00:52:37.055Z,14.58
2019-03-27T00:55:06.879Z,16.30
2019-03-27T00:57:36.209Z,15.78
2019-03-27T01:00:08.647Z,15.23
2019-03-27T01:02:37.831Z,16.97
2019-03-27T01:05:06.997Z,15.95
2019-03-27T01:07:36.160Z,14.73
2019-03-27T01:10:05.359Z,16.55
2019-03-27T01:12:34.678Z,16.25
2019-03-27T01:15:06.317Z,16.15
2019-03-27T01:17:35.569Z,16.75
2019-03-27T01:20:05.993Z,15.23
2019-03-27T01:22:35.567Z,15.03
2019-03-27T01:25:06.290Z,15.43
2019-03-27T01:27:35.931Z,15.23
2019-03-27T01:30:05.702Z,14.43
2019-03-27T01:32:34.874Z,16.15
2019-03-27T01:35:04.024Z,15.72
2019-03-27T01:37:33.192Z,15.93
2019-03-27T01:40:02.341Z,17.32
2019-03-27T01:42:31.491Z,14.85
2019-03-27T01:45:00.654Z,16.35
2019-03-27T01:47:29.842Z,16.50
2019-03-27T01:49:59.006Z,15.32
2019-03-27T01:52:28.180Z,14.80
2019-03-27T01:54:57.368Z,15.93
2019-03-27T01:57:26.646Z,16.73
2019-03-27T01:59:55.792Z,16.50
2019-03-27T02:02:24.950Z,16.20
2019-03-27T02:04:54.186Z,16.75
2019-03-27T02:07:23.418Z,15.65
2019-03-27T02:09:52.574Z,16.23
2019-03-27T02:12:21.750Z,15.60
2019-03-27T02:14:50.969Z,16.75
2019-03-27T02:17:20.122Z,16.70
2019-03-27T02:19:49.276Z,16.90
2019-03-27T02:22:18.429Z,16.65
2019-03-27T02:24:47.580Z,16.60
2019-03-27T02:27:16.762Z,17.55
2019-03-27T02:29:45.911Z,16.80
2019-03-27T02:32:15.090Z,16.82
2019-03-27T02:34:44.255Z,16.62
2019-03-27T02:37:13.413Z,17.62
2019-03-27T02:39:42.710Z,17.95
2019-03-27T02:42:11.987Z,18.98
2019-03-27T02:44:41.156Z,19.80
2019-03-27T02:47:10.367Z,19.70
2019-03-27T02:49:39.723Z,20.37
2019-03-27T02:52:08.950Z,19.65
2019-03-27T02:54:38.143Z,18.62
2019-03-27T02:57:07.378Z,19.20
2019-03-27T02:59:36.549Z,20.25
2019-03-27T03:02:05.724Z,20.50
2019-03-27T03:04:34.919Z,21.62
2019-03-27T03:07:04.076Z,20.57
2019-03-27T03:09:33.438Z,20.02
2019-03-27T03:12:02.675Z,20.12
2019-03-27T03:14:33.008Z,21.25
2019-03-27T03:17:02.224Z,21.55
2019-03-27T03:19:31.451Z,20.90
2019-03-27T03:22:00.609Z,20.88
2019-03-27T03:24:29.793Z,20.95
2019-03-27T03:26:58.964Z,19.90
2019-03-27T03:29:28.213Z,22.60
2019-03-27T03:31:57.665Z,22.82
2019-03-27T03:34:26.924Z,22.87
2019-03-27T03:36:56.151Z,23.20
2019-03-27T03:39:25.336Z,21.82
2019-03-27T03:41:54.580Z,23.38
2019-03-27T03:44:23.738Z,22.10
2019-03-27T03:46:59.991Z,21.52
2019-03-27T03:49:23.766Z,21.62
2019-03-27T03:51:53.010Z,20.95
2019-03-27T03:54:22.588Z,21.80
2019-03-27T03:56:52.524Z,22.27
2019-03-27T03:59:22.563Z,21.37
2019-03-27T04:01:53.519Z,22.40
2019-03-27T04:04:22.755Z,23.15
2019-03-27T04:06:51.909Z,21.35
2019-03-27T04:09:21.103Z,22.90
2019-03-27T04:11:50.304Z,23.40
2019-03-27T04:14:19.458Z,24.27
2019-03-27T04:16:49.706Z,25.15
2019-03-27T04:19:21.573Z,24.92
2019-03-27T04:21:50.784Z,24.45
2019-03-27T04:24:19.985Z,25.45
2019-03-27T04:26:49.410Z,25.30
2019-03-27T04:29:18.584Z,26.85
2019-03-27T04:31:48.927Z,24.37
2019-03-27T04:34:18.151Z,25.35
2019-03-27T04:36:47.335Z,24.47
2019-03-27T04:39:16.630Z,24.67
2019-03-27T04:41:45.860Z,28.07
2019-03-27T04:44:15.064Z,25.97
2019-03-27T04:46:44.374Z,29.25
2019-03-27T04:49:13.616Z,26.20
2019-03-27T04:51:42.881Z,26.90
2019-03-27T04:54:12.107Z,27.40
2019-03-27T04:56:41.364Z,25.97
2019-03-27T04:59:10.619Z,25.08
2019-03-27T05:01:39.858Z,28.25
2019-03-27T05:04:09.182Z,26.62
2019-03-27T05:06:38.352Z,27.20
2019-03-27T05:09:07.585Z,26.30
2019-03-27T05:11:36.832Z,27.45
2019-03-27T05:14:05.986Z,26.68
2019-03-27T05:16:35.184Z,25.02
2019-03-27T05:19:04.337Z,27.73
2019-03-27T05:21:33.566Z,24.75
2019-03-27T05:24:03.011Z,25.77
2019-03-27T05:26:32.403Z,28.05
2019-03-27T05:29:01.562Z,27.27
2019-03-27T05:31:30.730Z,25.37
2019-03-27T05:33:59.882Z,25.75
2019-03-27T05:36:29.044Z,27.22
2019-03-27T05:38:58.195Z,27.20
2019-03-27T05:41:27.371Z,25.43
2019-03-27T05:43:56.585Z,26.02
2019-03-27T05:46:26.648Z,29.42
2019-03-27T05:48:55.943Z,27.65
2019-03-27T05:51:25.182Z,26.70
2019-03-27T05:53:54.363Z,27.05
2019-03-27T05:56:23.664Z,27.25
2019-03-27T05:58:52.941Z,27.20
2019-03-27T06:01:22.207Z,29.12
2019-03-27T06:03:51.353Z,23.55
2019-03-27T06:06:20.577Z,23.80
2019-03-27T06:08:49.757Z,22.98
2019-03-27T06:11:18.965Z,24.77
2019-03-27T06:13:48.126Z,23.57
2019-03-27T06:16:17.628Z,25.88
2019-03-27T06:18:46.822Z,22.98
2019-03-27T06:21:15.967Z,24.02
2019-03-27T06:23:45.143Z,25.85
2019-03-27T06:26:14.347Z,26.60
2019-03-27T06:28:43.523Z,24.67
2019-03-27T06:31:12.673Z,26.75
2019-03-27T06:33:43.523Z,26.10
2019-03-27T06:36:12.803Z,26.00
2019-03-27T06:38:42.017Z,27.65
2019-03-27T06:41:11.311Z,28.62
2019-03-27T06:43:40.473Z,27.65
2019-03-27T06:46:09.631Z,29.77
2019-03-27T06:48:38.843Z,28.23
2019-03-27T06:51:08.147Z,27.05
2019-03-27T06:53:37.365Z,25.80
2019-03-27T06:56:06.515Z,25.35
2019-03-27T06:58:35.681Z,28.52
2019-03-27T07:01:04.834Z,28.15
2019-03-27T07:03:34.024Z,29.07
2019-03-27T07:06:03.184Z,27.20
2019-03-27T07:08:32.412Z,29.57
2019-03-27T07:11:01.603Z,27.10
2019-03-27T07:13:30.883Z,29.63
2019-03-27T07:16:00.173Z,28.38
2019-03-27T07:18:39.564Z,27.20
2019-03-27T07:21:00.245Z,26.60
2019-03-27T07:23:29.412Z,29.63
2019-03-27T07:25:58.602Z,28.10
2019-03-27T07:28:27.766Z,27.20
2019-03-27T07:30:57.057Z,26.70
2019-03-27T07:33:26.234Z,26.00
2019-03-27T07:35:55.532Z,25.95
2019-03-27T07:38:25.796Z,26.45
2019-03-27T07:40:54.953Z,39.98
2019-03-27T07:43:24.199Z,27.42
2019-03-27T07:45:53.485Z,28.10
2019-03-27T07:48:22.651Z,26.95
2019-03-27T07:50:51.828Z,28.52
2019-03-27T07:53:22.566Z,27.52
2019-03-27T07:55:51.987Z,26.20
2019-03-27T07:58:21.143Z,29.52
2019-03-27T08:00:50.310Z,27.62
2019-03-27T08:03:19.456Z,27.20
2019-03-27T08:05:48.618Z,27.15
2019-03-27T08:08:17.815Z,27.93
2019-03-27T08:10:47.018Z,27.87
2019-03-27T08:13:16.250Z,27.05
2019-03-27T08:15:45.518Z,30.30
2019-03-27T08:18:14.760Z,28.20
2019-03-27T08:20:43.909Z,26.73
2019-03-27T08:23:13.074Z,27.98
2019-03-27T08:25:42.370Z,26.50
2019-03-27T08:28:11.538Z,29.67
2019-03-27T08:30:42.927Z,27.93
2019-03-27T08:33:12.185Z,28.87
2019-03-27T08:35:41.346Z,31.30
2019-03-27T08:38:10.534Z,27.35
2019-03-27T08:40:39.686Z,28.05
2019-03-27T08:43:20.589Z,28.17
2019-03-27T08:45:41.333Z,27.27
2019-03-27T08:48:10.574Z,26.27
2019-03-27T08:50:39.881Z,26.50
2019-03-27T08:53:09.143Z,27.85
2019-03-27T08:55:38.302Z,26.97
2019-03-27T08:58:07.459Z,28.27
2019-03-27T09:00:53.326Z,27.77
2019-03-27T09:03:22.500Z,26.62
2019-03-27T09:05:51.645Z,25.65
2019-03-27T09:08:20.991Z,27.02
2019-03-27T09:10:50.151Z,28.00
2019-03-27T09:13:19.332Z,26.62
2019-03-27T09:15:48.487Z,26.73
2019-03-27T09:18:17.741Z,24.98
2019-03-27T09:20:46.921Z,23.90
2019-03-27T09:23:16.097Z,21.95
2019-03-27T09:25:45.499Z,23.60
2019-03-27T09:28:14.736Z,21.95
2019-03-27T09:30:44.005Z,24.60
2019-03-27T09:33:13.208Z,24.10
2019-03-27T09:35:42.463Z,22.50
2019-03-27T09:38:11.636Z,23.57
2019-03-27T09:40:40.802Z,21.77
2019-03-27T09:43:09.983Z,23.77
2019-03-27T09:45:39.182Z,22.10
2019-03-27T09:48:08.336Z,21.25
2019-03-27T09:50:37.573Z,20.27
2019-03-27T09:53:06.715Z,19.73
2019-03-27T09:55:36.015Z,21.33
2019-03-27T09:58:05.227Z,20.60
2019-03-27T10:00:54.561Z,19.07
2019-03-27T10:03:23.884Z,19.48
2019-03-27T10:05:53.221Z,19.05
2019-03-27T10:08:22.417Z,18.12
2019-03-27T10:10:51.652Z,18.23
2019-03-27T10:13:20.807Z,19.75
2019-03-27T10:15:49.981Z,22.48
2019-03-27T10:18:19.144Z,20.10
2019-03-27T10:20:48.379Z,21.97
2019-03-27T10:23:17.543Z,21.15
2019-03-27T10:25:46.730Z,20.77
2019-03-27T10:28:15.879Z,19.40
2019-03-27T10:30:45.104Z,19.70
2019-03-27T10:33:15.315Z,17.30
2019-03-27T10:35:44.755Z,17.82
2019-03-27T10:38:13.928Z,16.60
2019-03-27T10:40:43.095Z,16.73
2019-03-27T10:43:12.300Z,17.90
2019-03-27T10:45:41.523Z,18.62
2019-03-27T10:48:10.696Z,16.97
2019-03-27T10:50:39.950Z,17.82
2019-03-27T10:53:09.190Z,16.77
2019-03-27T10:55:38.422Z,19.70
2019-03-27T10:58:07.668Z,16.65
2019-03-27T11:00:36.831Z,16.10
2019-03-27T11:03:06.090Z,15.93
2019-03-27T11:05:35.992Z,16.23
2019-03-27T11:08:05.206Z,15.25
2019-03-27T11:10:34.450Z,15.10
2019-03-27T11:13:03.638Z,20.32
2019-03-27T11:15:32.884Z,19.48
2019-03-27T11:18:02.051Z,21.37
2019-03-27T11:20:34.265Z,19.92
2019-03-27T11:23:03.804Z,17.73
2019-03-27T11:25:33.464Z,16.97
2019-03-27T11:28:02.771Z,15.63
2019-03-27T11:30:36.338Z,16.45
2019-03-27T11:33:06.885Z,15.90
2019-03-27T11:35:36.080Z,20.82
2019-03-27T11:38:05.335Z,22.13
2019-03-27T11:40:34.490Z,21.48
2019-03-27T11:43:04.031Z,22.80
2019-03-27T11:45:33.572Z,22.02
2019-03-27T11:48:02.806Z,20.20
2019-03-27T11:50:44.109Z,19.95
2019-03-27T11:53:04.247Z,19.27
2019-03-27T11:55:33.482Z,20.40
2019-03-27T11:58:02.645Z,20.90
2019-03-27T12:00:31.823Z,19.60
2019-03-27T12:03:00.990Z,19.07
2019-03-27T12:05:31.215Z,18.17
2019-03-27T12:08:00.379Z,19.77
2019-03-27T12:10:29.709Z,19.05
2019-03-27T12:12:58.955Z,19.10
2019-03-27T12:15:39.611Z,18.67
2019-03-27T12:18:09.182Z,17.02
2019-03-27T12:20:38.417Z,17.00
2019-03-27T12:23:07.664Z,16.15
2019-03-27T12:25:36.920Z,15.60
2019-03-27T12:28:06.193Z,14.98
2019-03-27T12:30:35.434Z,15.85
2019-03-27T12:33:04.754Z,14.13
2019-03-27T12:35:34.035Z,14.30
2019-03-27T12:38:04.477Z,15.13
2019-03-27T12:40:33.870Z,16.00
2019-03-27T12:43:03.033Z,15.32
2019-03-27T12:45:32.361Z,14.85
2019-03-27T12:48:02.758Z,14.33
2019-03-27T12:50:33.131Z,14.30
2019-03-27T12:53:02.287Z,14.28
2019-03-27T12:55:31.449Z,13.35
2019-03-27T12:58:00.622Z,13.65
2019-03-27T13:00:29.897Z,13.72
2019-03-27T13:03:00.136Z,14.10
2019-03-27T13:05:29.379Z,15.08
2019-03-27T13:07:58.593Z,13.58
2019-03-27T13:10:27.771Z,12.47
2019-03-27T13:12:56.944Z,13.93
2019-03-27T13:15:26.234Z,13.18
2019-03-27T13:17:55.475Z,12.07
2019-03-27T13:20:24.626Z,12.43
2019-03-27T13:22:53.814Z,12.07
2019-03-27T13:25:23.056Z,12.28
2019-03-27T13:27:52.225Z,12.73
2019-03-27T13:30:21.415Z,13.18
2019-03-27T13:32:50.642Z,12.95
2019-03-27T13:35:19.829Z,15.95
2019-03-27T13:37:49.008Z,13.35
2019-03-27T13:40:18.181Z,12.40
2019-03-27T13:42:47.369Z,11.35
2019-03-27T13:45:18.488Z,12.00
2019-03-27T13:47:47.492Z,12.45
2019-03-27T13:50:18.629Z,11.12
2019-03-27T13:52:47.803Z,12.23
2019-03-27T13:55:16.967Z,13.22
2019-03-27T13:57:46.122Z,12.03
2019-03-27T14:00:16.490Z,11.75
2019-03-27T14:02:45.699Z,11.93
2019-03-27T14:05:15.958Z,11.75
2019-03-27T14:07:45.360Z,12.33
2019-03-27T14:10:14.633Z,12.18
2019-03-27T14:12:43.801Z,13.83
2019-03-27T14:15:13.430Z,12.95
2019-03-27T14:17:42.662Z,11.80
2019-03-27T14:20:12.881Z,13.03
2019-03-27T14:22:42.059Z,12.10
2019-03-27T14:25:12.118Z,12.05
2019-03-27T14:27:41.302Z,12.40
2019-03-27T14:30:12.700Z,13.03
2019-03-27T14:32:41.899Z,12.50
2019-03-27T14:35:11.066Z,12.10
2019-03-27T14:37:41.640Z,12.88
2019-03-27T14:40:10.946Z,11.43
2019-03-27T14:42:40.278Z,12.43
2019-03-27T14:45:09.435Z,12.18
2019-03-27T14:47:38.696Z,13.38
2019-03-27T14:50:08.121Z,11.90
2019-03-27T14:52:37.303Z,13.03
2019-03-27T14:55:07.262Z,11.10
2019-03-27T14:57:37.290Z,12.55
2019-03-27T15:00:11.110Z,11.68
2019-03-27T15:02:40.382Z,11.80
2019-03-27T15:05:09.696Z,11.75
2019-03-27T15:07:38.917Z,11.53
2019-03-27T15:10:08.927Z,17.80
2019-03-27T15:12:38.079Z,15.13
2019-03-27T15:15:07.995Z,11.57
2019-03-27T15:17:37.335Z,12.63
2019-03-27T15:20:07.191Z,11.63
2019-03-27T15:22:36.798Z,11.55
2019-03-27T15:25:06.792Z,11.05
2019-03-27T15:27:36.037Z,11.28
2019-03-27T15:30:06.980Z,10.10
2019-03-27T15:32:36.163Z,9.63
2019-03-27T15:35:05.518Z,9.05
2019-03-27T15:37:34.848Z,9.00
2019-03-27T15:40:04.665Z,9.30
2019-03-27T15:42:35.733Z,10.03
2019-03-27T15:45:08.942Z,8.83
2019-03-27T15:47:38.182Z,15.80
2019-03-27T15:50:07.369Z,9.78
2019-03-27T15:52:37.185Z,8.88
2019-03-27T15:55:06.838Z,10.03
2019-03-27T15:57:36.085Z,9.63
2019-03-27T16:00:05.799Z,9.23
2019-03-27T16:02:35.321Z,10.48
2019-03-27T16:05:05.847Z,9.53
2019-03-27T16:07:35.087Z,10.30
2019-03-27T16:10:06.183Z,9.20
2019-03-27T16:12:36.538Z,9.88
2019-03-27T16:15:07.673Z,8.60
2019-03-27T16:17:37.004Z,8.40
2019-03-27T16:20:07.803Z,8.60
2019-03-27T16:22:50.003Z,8.65
2019-03-27T16:25:08.376Z,9.53
2019-03-27T16:27:37.606Z,9.43
2019-03-27T16:30:07.020Z,9.65
2019-03-27T16:32:37.309Z,9.10
2019-03-27T16:35:06.991Z,8.85
2019-03-27T16:37:36.164Z,8.83
2019-03-27T16:40:06.635Z,8.85
2019-03-27T16:42:35.783Z,9.65
2019-03-27T16:45:07.665Z,9.53
2019-03-27T16:47:36.903Z,10.48
2019-03-27T16:50:07.592Z,10.25
2019-03-27T16:52:36.834Z,9.55
2019-03-27T16:55:07.068Z,9.18
2019-03-27T16:57:36.214Z,8.48
2019-03-27T17:00:08.329Z,9.25
2019-03-27T17:02:37.714Z,9.93
2019-03-27T17:05:06.970Z,9.50
2019-03-27T17:07:36.114Z,8.70
2019-03-27T17:10:08.233Z,8.35
2019-03-27T17:12:37.459Z,7.90
2019-03-27T17:15:06.700Z,8.90
2019-03-27T17:17:36.020Z,8.20
2019-03-27T17:20:10.092Z,10.13
2019-03-27T17:22:39.260Z,9.35
2019-03-27T17:25:08.586Z,7.20
2019-03-27T17:27:37.872Z,8.90
2019-03-27T17:30:08.853Z,8.98
2019-03-27T17:32:38.113Z,8.78
2019-03-27T17:35:07.315Z,9.28
2019-03-27T17:37:36.598Z,8.85
2019-03-27T17:40:06.974Z,9.33
2019-03-27T17:42:36.152Z,9.83
2019-03-27T17:45:07.049Z,9.33
2019-03-27T17:47:36.302Z,9.40
2019-03-27T17:50:05.935Z,10.55
2019-03-27T17:52:38.026Z,10.48
2019-03-27T17:55:07.759Z,9.50
2019-03-27T17:57:36.927Z,10.70
2019-03-27T18:00:11.835Z,10.88
2019-03-27T18:02:41.071Z,10.15
2019-03-27T18:05:10.264Z,10.40
2019-03-27T18:07:39.469Z,11.30
2019-03-27T18:10:08.677Z,11.70
2019-03-27T18:12:37.898Z,11.38
2019-03-27T18:15:07.411Z,10.85
2019-03-27T18:17:36.722Z,11.25
2019-03-27T18:20:05.957Z,10.08
2019-03-27T18:22:36.105Z,10.70
2019-03-27T18:25:05.825Z,9.70
2019-03-27T18:27:34.997Z,11.43
2019-03-27T18:30:06.896Z,11.20
2019-03-27T18:32:36.243Z,11.18
2019-03-27T18:35:06.375Z,11.73
2019-03-27T18:37:36.625Z,11.25
2019-03-27T18:40:07.416Z,11.35
2019-03-27T18:42:36.670Z,12.20
2019-03-27T18:45:06.825Z,12.63
2019-03-27T18:47:36.041Z,12.75
2019-03-27T18:50:07.076Z,12.07
2019-03-27T18:52:36.635Z,14.18
2019-03-27T18:55:07.518Z,12.82
2019-03-27T18:57:36.771Z,13.78
2019-03-27T19:00:07.333Z,14.25
2019-03-27T19:02:37.764Z,13.38
2019-03-27T19:05:07.813Z,13.75
2019-03-27T19:07:37.133Z,13.10
2019-03-27T19:10:07.581Z,14.05
2019-03-27T19:12:36.776Z,12.80
2019-03-27T19:15:07.236Z,14.35
2019-03-27T19:17:36.720Z,13.85
2019-03-27T19:20:06.818Z,14.80
2019-03-27T19:22:36.101Z,14.20
2019-03-27T19:25:08.033Z,13.40
2019-03-27T19:27:38.366Z,14.00
2019-03-27T19:30:09.088Z,14.75
2019-03-27T19:32:38.395Z,13.18
2019-03-27T19:35:07.839Z,13.30
2019-03-27T19:37:38.228Z,14.35
2019-03-27T19:40:07.500Z,13.65
2019-03-27T19:42:36.771Z,14.40
2019-03-27T19:45:06.279Z,14.23
2019-03-27T19:47:35.801Z,14.87
2019-03-27T19:50:06.392Z,15.03
2019-03-27T19:52:35.684Z,16.48
2019-03-27T19:55:05.910Z,15.30
2019-03-27T19:57:37.290Z,12.73
2019-03-27T20:00:10.108Z,14.55
2019-03-27T20:02:40.466Z,15.10
2019-03-27T20:05:09.675Z,14.50
2019-03-27T20:07:39.001Z,13.58
2019-03-27T20:10:08.282Z,14.25
2019-03-27T20:12:38.996Z,15.68
2019-03-27T20:15:12.392Z,15.15
2019-03-27T20:17:40.173Z,14.30
2019-03-27T20:20:09.739Z,14.33
2019-03-27T20:22:39.156Z,14.73
2019-03-27T20:25:08.432Z,15.43
2019-03-27T20:27:37.721Z,13.00
2019-03-27T20:30:14.524Z,15.05
2019-03-27T20:32:44.971Z,15.75
2019-03-27T20:35:14.442Z,14.80
2019-03-27T20:37:43.815Z,17.02
2019-03-27T20:40:15.477Z,16.20
2019-03-27T20:42:44.664Z,17.45
2019-03-27T20:45:14.675Z,15.38
2019-03-27T20:47:45.215Z,16.75
2019-03-27T20:50:14.486Z,15.60
2019-03-27T20:52:43.910Z,16.07
2019-03-27T20:55:13.119Z,18.05
2019-03-27T20:57:42.757Z,18.02
2019-03-27T21:00:14.904Z,16.23
2019-03-27T21:02:45.938Z,15.68
2019-03-27T21:05:15.398Z,16.30
2019-03-27T21:07:44.813Z,16.00
2019-03-27T21:10:14.222Z,17.15
2019-03-27T21:12:45.081Z,16.35
2019-03-27T21:15:14.539Z,17.32
2019-03-27T21:17:43.809Z,17.27
2019-03-27T21:20:13.569Z,18.10
2019-03-27T21:22:42.838Z,17.05
2019-03-27T21:25:12.066Z,15.80
2019-03-27T21:27:41.335Z,17.40
2019-03-27T21:30:12.226Z,17.60
2019-03-27T21:32:42.663Z,16.87
2019-03-27T21:35:11.853Z,21.07
2019-03-27T21:37:42.176Z,18.12
2019-03-27T21:40:12.452Z,18.65
2019-03-27T21:42:41.751Z,15.78
2019-03-27T21:45:10.943Z,16.62
2019-03-27T21:47:40.168Z,17.35
2019-03-27T21:50:10.015Z,16.97
2019-03-27T21:52:39.380Z,16.48
2019-03-27T21:55:21.478Z,16.57
2019-03-27T21:57:39.484Z,16.45
2019-03-27T22:00:08.819Z,16.90
2019-03-27T22:02:37.991Z,16.45
2019-03-27T22:05:07.461Z,16.60
2019-03-27T22:07:36.700Z,16.67
2019-03-27T22:10:07.233Z,16.05
2019-03-27T22:12:38.174Z,15.95
2019-03-27T22:15:08.058Z,16.07
2019-03-27T22:17:37.271Z,16.45
2019-03-27T22:20:07.046Z,16.32
2019-03-27T22:22:36.222Z,15.75
2019-03-27T22:25:07.069Z,15.53
2019-03-27T22:27:36.231Z,14.78
2019-03-27T22:30:06.945Z,15.83
2019-03-27T22:32:36.138Z,15.98
2019-03-27T22:35:08.349Z,18.27
2019-03-27T22:37:37.514Z,15.70
2019-03-27T22:40:07.042Z,16.65
2019-03-27T22:42:36.218Z,15.72
2019-03-27T22:45:05.749Z,16.93
2019-03-27T22:47:34.916Z,16.85
2019-03-27T22:50:08.410Z,16.45
2019-03-27T22:52:37.664Z,16.35
2019-03-27T22:55:07.894Z,16.40
2019-03-27T22:57:37.042Z,17.35
2019-03-27T23:00:10.332Z,16.35
2019-03-27T23:02:41.132Z,16.95
2019-03-27T23:05:10.294Z,16.37
2019-03-27T23:07:39.545Z,16.90
2019-03-27T23:10:08.707Z,17.15
2019-03-27T23:12:37.932Z,16.20
2019-03-27T23:15:10.159Z,15.68
2019-03-27T23:17:39.429Z,16.13
2019-03-27T23:20:08.681Z,15.15
2019-03-27T23:22:37.828Z,18.10
2019-03-27T23:25:07.016Z,16.45
2019-03-27T23:27:36.278Z,16.80
2019-03-27T23:30:07.283Z,16.82
2019-03-27T23:32:36.583Z,17.05
2019-03-27T23:35:08.260Z,16.52
2019-03-27T23:37:37.532Z,17.05
2019-03-27T23:40:07.070Z,16.32
2019-03-27T23:42:36.239Z,17.05
2019-03-27T23:45:06.123Z,17.05
2019-03-27T23:47:35.273Z,16.75
2019-03-27T23:50:07.413Z,16.42
2019-03-27T23:52:36.647Z,17.52
2019-03-27T23:55:07.172Z,16.05
2019-03-27T23:57:36.354Z,15.30
